createdAt,value
2018-07-12T00:06:06.084Z,17.80
2018-07-12T00:10:08.565Z,17.80
2018-07-12T00:14:11.041Z,17.80
2018-07-12T00:18:13.516Z,17.80
2018-07-12T00:22:15.956Z,17.80
2018-07-12T00:26:18.443Z,17.80
2018-07-12T00:30:20.927Z,17.80
2018-07-12T00:34:23.407Z,17.80
2018-07-12T00:38:25.892Z,17.70
2018-07-12T00:42:28.929Z,17.70
2018-07-12T00:46:31.467Z,17.70
2018-07-12T00:50:33.936Z,17.70
2018-07-12T00:54:36.407Z,17.70
2018-07-12T00:58:38.871Z,17.70
2018-07-12T01:02:41.311Z,17.70
2018-07-12T01:06:43.800Z,17.70
2018-07-12T01:10:46.283Z,17.60
2018-07-12T01:14:48.760Z,17.70
2018-07-12T01:18:51.243Z,17.60
2018-07-12T01:22:53.703Z,17.60
2018-07-12T01:26:56.180Z,17.70
2018-07-12T01:30:58.973Z,17.60
2018-07-12T01:35:01.441Z,17.60
2018-07-12T01:39:05.078Z,17.60
2018-07-12T01:43:07.554Z,17.60
2018-07-12T01:47:10.125Z,17.50
2018-07-12T01:51:12.615Z,17.50
2018-07-12T01:55:15.083Z,17.50
2018-07-12T01:59:17.540Z,17.40
2018-07-12T02:03:20.021Z,17.40
2018-07-12T02:07:22.466Z,17.40
2018-07-12T02:11:25.009Z,17.30
2018-07-12T02:15:27.489Z,17.30
2018-07-12T02:19:30.076Z,17.30
2018-07-12T02:23:32.543Z,17.20
2018-07-12T02:27:35.016Z,17.20
2018-07-12T02:31:37.514Z,17.20
2018-07-12T02:35:39.992Z,17.10
2018-07-12T02:39:42.467Z,17.10
2018-07-12T02:43:44.930Z,17.00
2018-07-12T02:47:47.364Z,17.00
2018-07-12T02:51:49.831Z,17.00
2018-07-12T02:55:52.301Z,16.90
2018-07-12T02:59:54.781Z,16.90
2018-07-12T03:03:57.276Z,16.90
2018-07-12T03:07:59.716Z,16.80
2018-07-12T03:12:02.197Z,16.80
2018-07-12T03:16:04.672Z,16.80
2018-07-12T03:20:07.223Z,16.80
2018-07-12T03:24:09.705Z,16.80
2018-07-12T03:28:12.147Z,16.80
2018-07-12T03:32:14.619Z,16.80
2018-07-12T03:36:17.102Z,16.80
2018-07-12T03:40:19.577Z,16.70
2018-07-12T03:44:22.052Z,16.70
2018-07-12T03:48:24.488Z,16.70
2018-07-12T03:52:26.960Z,16.60
2018-07-12T03:56:29.432Z,16.60
2018-07-12T04:00:31.917Z,16.60
2018-07-12T04:04:34.466Z,16.50
2018-07-12T04:08:36.900Z,16.50
2018-07-12T04:12:39.712Z,16.50
2018-07-12T04:16:42.195Z,16.60
2018-07-12T04:20:44.668Z,16.60
2018-07-12T04:24:47.551Z,16.60
2018-07-12T04:28:50.159Z,16.60
2018-07-12T04:32:52.638Z,16.70
2018-07-12T04:36:55.112Z,16.70
2018-07-12T04:40:57.672Z,16.70
2018-07-12T04:45:00.145Z,16.70
2018-07-12T04:49:02.584Z,16.70
2018-07-12T04:53:05.056Z,16.70
2018-07-12T04:57:07.520Z,16.80
2018-07-12T05:01:10.003Z,16.80
2018-07-12T05:05:12.476Z,16.80
2018-07-12T05:09:14.915Z,16.90
2018-07-12T05:13:17.400Z,16.90
2018-07-12T05:17:19.879Z,16.90
2018-07-12T05:21:22.350Z,16.90
2018-07-12T05:25:24.890Z,17.00
2018-07-12T05:29:27.327Z,17.00
2018-07-12T05:33:29.798Z,17.00
2018-07-12T05:37:33.605Z,17.10
2018-07-12T05:41:37.268Z,17.10
2018-07-12T05:45:40.938Z,17.10
2018-07-12T05:49:44.564Z,17.20
2018-07-12T05:53:48.251Z,17.10
2018-07-12T05:57:51.992Z,17.10
2018-07-12T06:02:06.827Z,17.10
2018-07-12T06:06:10.496Z,17.10
2018-07-12T06:10:14.148Z,17.20
2018-07-12T06:14:17.828Z,17.20
2018-07-12T06:18:21.511Z,17.20
2018-07-12T06:22:25.204Z,17.20
2018-07-12T06:26:28.928Z,17.30
2018-07-12T06:30:32.573Z,17.30
2018-07-12T06:34:36.544Z,17.30
2018-07-12T06:38:40.228Z,17.40
2018-07-12T06:42:43.904Z,17.60
2018-07-12T06:46:47.654Z,17.60
2018-07-12T06:50:51.338Z,17.70
2018-07-12T06:54:55.025Z,17.70
2018-07-12T06:58:58.707Z,17.80
2018-07-12T07:03:02.399Z,17.90
2018-07-12T07:07:06.230Z,18.30
2018-07-12T07:11:10.066Z,18.30
2018-07-12T07:15:13.744Z,19.00
2018-07-12T07:19:17.419Z,19.80
2018-07-12T07:23:21.087Z,20.60
2018-07-12T07:27:24.768Z,21.60
2018-07-12T07:31:28.443Z,22.50
2018-07-12T07:35:32.095Z,23.10
2018-07-12T07:39:35.780Z,23.60
2018-07-12T07:43:39.455Z,24.10
2018-07-12T07:47:43.159Z,25.20
2018-07-12T07:51:46.832Z,25.30
2018-07-12T07:55:50.583Z,25.80
2018-07-12T07:59:54.264Z,26.40
2018-07-12T08:03:57.931Z,26.80
2018-07-12T08:08:01.627Z,27.30
2018-07-12T08:12:05.297Z,27.70
2018-07-12T08:16:09.055Z,27.90
2018-07-12T08:20:12.792Z,27.80
2018-07-12T08:24:16.601Z,27.60
2018-07-12T08:28:23.948Z,27.50
2018-07-12T08:32:27.629Z,27.60
2018-07-12T08:36:31.280Z,27.70
2018-07-12T08:40:34.995Z,27.90
2018-07-12T08:44:38.679Z,28.10
2018-07-12T08:48:42.324Z,28.20
2018-07-12T08:52:45.993Z,28.40
2018-07-12T08:56:49.647Z,28.60
2018-07-12T09:00:53.335Z,28.80
2018-07-12T09:04:57.001Z,28.90
2018-07-12T09:09:00.751Z,28.70
2018-07-12T09:13:13.076Z,28.30
2018-07-12T09:17:16.956Z,28.10
2018-07-12T09:21:23.852Z,28.00
2018-07-12T09:25:27.509Z,28.00
2018-07-12T09:29:31.200Z,27.90
2018-07-12T09:33:34.847Z,27.60
2018-07-12T09:37:38.545Z,27.20
2018-07-12T09:41:42.191Z,26.80
2018-07-12T09:45:45.850Z,26.50
2018-07-12T09:49:49.516Z,26.30
2018-07-12T09:53:53.176Z,26.00
2018-07-12T09:58:10.020Z,25.90
2018-07-12T10:02:18.908Z,25.70
2018-07-12T10:06:27.911Z,25.50
2018-07-12T10:10:31.722Z,25.40
2018-07-12T10:14:40.566Z,25.30
2018-07-12T10:18:44.303Z,25.20
2018-07-12T10:22:47.935Z,25.30
2018-07-12T10:26:51.588Z,25.30
2018-07-12T10:30:55.252Z,25.40
2018-07-12T10:34:58.934Z,25.40
2018-07-12T10:39:02.743Z,25.40
2018-07-12T10:43:06.404Z,25.30
2018-07-12T10:47:10.062Z,25.30
2018-07-12T10:51:13.749Z,25.40
2018-07-12T10:55:17.480Z,25.40
2018-07-12T10:59:21.208Z,25.40
2018-07-12T11:03:24.882Z,25.40
2018-07-12T11:07:28.560Z,25.30
2018-07-12T11:11:32.211Z,25.20
2018-07-12T11:15:35.859Z,25.00
2018-07-12T11:19:39.501Z,25.00
2018-07-12T11:23:43.174Z,24.90
2018-07-12T11:27:46.830Z,25.00
2018-07-12T11:31:50.472Z,25.10
2018-07-12T11:35:54.116Z,25.20
2018-07-12T11:39:57.774Z,25.20
2018-07-12T11:44:01.452Z,25.30
2018-07-12T11:48:05.092Z,25.40
2018-07-12T11:52:08.866Z,25.50
2018-07-12T11:56:12.564Z,25.50
2018-07-12T12:00:16.200Z,25.50
2018-07-12T12:04:19.810Z,25.50
2018-07-12T12:08:24.130Z,25.70
2018-07-12T12:12:27.882Z,25.90
2018-07-12T12:16:31.535Z,26.10
2018-07-12T12:20:35.964Z,26.20
2018-07-12T12:24:39.629Z,26.30
2018-07-12T12:28:43.283Z,26.40
2018-07-12T12:32:46.990Z,26.60
2018-07-12T12:37:00.728Z,26.70
2018-07-12T12:41:04.700Z,26.90
2018-07-12T12:45:08.311Z,27.00
2018-07-12T12:49:12.220Z,27.10
2018-07-12T12:53:15.895Z,27.20
2018-07-12T12:57:19.935Z,27.10
2018-07-12T13:01:23.597Z,27.00
2018-07-12T13:05:27.229Z,27.00
2018-07-12T13:09:30.875Z,26.90
2018-07-12T13:13:34.515Z,26.80
2018-07-12T13:17:38.179Z,26.80
2018-07-12T13:21:41.957Z,26.80
2018-07-12T13:25:45.668Z,26.70
2018-07-12T13:29:49.288Z,26.60
2018-07-12T13:33:52.943Z,26.60
2018-07-12T13:37:56.607Z,26.50
2018-07-12T13:42:00.315Z,26.40
2018-07-12T13:46:03.939Z,26.40
2018-07-12T13:50:07.608Z,26.40
2018-07-12T13:54:11.359Z,26.50
2018-07-12T13:58:15.008Z,26.50
2018-07-12T14:02:18.675Z,26.40
2018-07-12T14:06:22.315Z,26.40
2018-07-12T14:10:25.984Z,26.20
2018-07-12T14:14:29.645Z,26.20
2018-07-12T14:18:33.300Z,26.10
2018-07-12T14:22:36.995Z,26.00
2018-07-12T14:26:40.617Z,25.90
2018-07-12T14:30:44.263Z,25.80
2018-07-12T14:34:47.920Z,25.80
2018-07-12T14:38:51.583Z,25.80
2018-07-12T14:42:55.228Z,25.90
2018-07-12T14:46:58.914Z,25.90
2018-07-12T14:51:02.560Z,25.90
2018-07-12T14:55:06.242Z,25.90
2018-07-12T14:59:09.899Z,25.80
2018-07-12T15:03:13.559Z,25.90
2018-07-12T15:07:18.330Z,25.90
2018-07-12T15:11:23.282Z,25.90
2018-07-12T15:15:27.984Z,25.80
2018-07-12T15:19:32.696Z,25.70
2018-07-12T15:23:36.414Z,25.60
2018-07-12T15:27:40.057Z,25.60
2018-07-12T15:31:43.763Z,25.50
2018-07-12T15:35:47.411Z,25.50
2018-07-12T15:39:51.064Z,25.50
2018-07-12T15:43:54.759Z,25.50
2018-07-12T15:52:01.728Z,25.50
2018-07-12T15:56:05.613Z,25.40
2018-07-12T16:00:09.305Z,25.30
2018-07-12T16:04:12.963Z,25.20
2018-07-12T16:08:16.594Z,25.10
2018-07-12T16:12:20.345Z,25.10
2018-07-12T16:16:24.016Z,25.00
2018-07-12T16:20:27.700Z,25.00
2018-07-12T16:24:31.399Z,25.00
2018-07-12T16:28:35.028Z,25.00
2018-07-12T16:32:38.673Z,25.00
2018-07-12T16:36:42.363Z,25.10
2018-07-12T16:40:46.062Z,25.00
2018-07-12T16:44:49.723Z,25.00
2018-07-12T16:48:53.363Z,25.00
2018-07-12T16:52:57.036Z,24.90
2018-07-12T16:57:00.742Z,24.80
2018-07-12T17:01:04.426Z,24.80
2018-07-12T17:05:08.311Z,24.80
2018-07-12T17:09:12.091Z,24.80
2018-07-12T17:13:15.875Z,24.70
2018-07-12T17:17:19.633Z,24.70
2018-07-12T17:21:23.438Z,24.70
2018-07-12T17:25:27.215Z,24.70
2018-07-12T17:29:30.870Z,24.60
2018-07-12T17:33:34.525Z,24.60
2018-07-12T17:37:38.197Z,24.50
2018-07-12T17:41:41.977Z,24.50
2018-07-12T17:45:45.655Z,24.50
2018-07-12T17:49:49.307Z,24.40
2018-07-12T17:53:52.964Z,24.40
2018-07-12T17:57:56.681Z,24.30
2018-07-12T18:02:00.389Z,24.30
2018-07-12T18:06:04.053Z,24.30
2018-07-12T18:10:07.718Z,24.30
2018-07-12T18:14:11.448Z,24.40
2018-07-12T18:18:15.014Z,24.40
2018-07-12T18:22:18.757Z,24.40
2018-07-12T18:26:22.364Z,24.40
2018-07-12T18:30:26.050Z,24.40
2018-07-12T18:34:29.675Z,24.40
2018-07-12T18:38:33.362Z,24.40
2018-07-12T18:42:37.047Z,24.50
2018-07-12T18:46:40.703Z,24.60
2018-07-12T18:50:44.383Z,24.50
2018-07-12T18:54:48.040Z,24.50
2018-07-12T18:58:51.683Z,24.50
2018-07-12T19:02:55.380Z,24.40
2018-07-12T19:06:59.032Z,24.40
2018-07-12T19:11:02.709Z,24.30
2018-07-12T19:15:06.465Z,24.20
2018-07-12T19:19:10.048Z,24.10
2018-07-12T19:23:13.710Z,24.10
2018-07-12T19:27:17.376Z,24.00
2018-07-12T19:31:21.059Z,23.80
2018-07-12T19:35:24.680Z,23.70
2018-07-12T19:39:28.340Z,23.60
2018-07-12T19:43:32.003Z,23.50
2018-07-12T19:47:35.695Z,23.40
2018-07-12T19:51:39.424Z,23.40
2018-07-12T19:55:43.075Z,23.20
2018-07-12T19:59:46.725Z,23.10
2018-07-12T20:03:50.432Z,23.00
2018-07-12T20:07:54.076Z,22.90
2018-07-12T20:11:57.729Z,22.80
2018-07-12T20:16:01.392Z,22.70
2018-07-12T20:20:05.089Z,22.60
2018-07-12T20:24:09.227Z,22.40
2018-07-12T20:28:12.899Z,22.40
2018-07-12T20:32:16.538Z,22.30
2018-07-12T20:36:20.289Z,22.20
2018-07-12T20:40:23.930Z,22.00
2018-07-12T20:44:27.607Z,22.00
2018-07-12T20:48:31.277Z,21.90
2018-07-12T20:52:35.018Z,21.80
2018-07-12T20:56:38.712Z,21.80
2018-07-12T21:00:42.377Z,21.70
2018-07-12T21:04:46.105Z,21.70
2018-07-12T21:08:49.749Z,21.60
2018-07-12T21:12:53.421Z,21.60
2018-07-12T21:16:57.184Z,21.60
2018-07-12T21:25:04.715Z,21.40
2018-07-12T21:29:08.392Z,21.30
2018-07-12T21:33:12.142Z,21.30
2018-07-12T21:37:15.721Z,21.20
2018-07-12T21:41:19.371Z,21.20
2018-07-12T21:45:23.096Z,21.10
2018-07-12T21:49:26.746Z,21.10
2018-07-12T21:53:30.409Z,21.00
2018-07-12T21:57:34.121Z,21.00
2018-07-12T22:01:37.749Z,21.00
2018-07-12T22:05:41.409Z,21.00
2018-07-12T22:09:45.134Z,21.00
2018-07-12T22:13:48.809Z,20.90
2018-07-12T22:17:52.449Z,20.90
2018-07-12T22:21:56.210Z,20.80
2018-07-12T22:25:59.868Z,20.80
2018-07-12T22:30:03.552Z,20.70
2018-07-12T22:34:07.218Z,20.70
2018-07-12T22:38:10.901Z,20.60
2018-07-12T22:42:14.542Z,20.50
2018-07-12T22:46:18.199Z,20.40
2018-07-12T22:50:21.915Z,20.40
2018-07-12T22:54:25.684Z,20.30
2018-07-12T22:58:29.336Z,20.20
2018-07-12T23:02:32.949Z,20.10
2018-07-12T23:06:36.698Z,20.00
2018-07-12T23:10:40.325Z,19.90
2018-07-12T23:14:43.976Z,19.80
2018-07-12T23:18:47.631Z,19.80
2018-07-12T23:22:51.299Z,19.70
2018-07-12T23:26:54.970Z,19.60
2018-07-12T23:30:58.644Z,19.50
2018-07-12T23:35:02.315Z,19.40
2018-07-12T23:39:07.360Z,19.30
2018-07-12T23:43:10.981Z,19.20
2018-07-12T23:47:14.636Z,19.10
2018-07-12T23:51:18.309Z,19.00
2018-07-12T23:55:21.998Z,19.00
2018-07-12T23:59:25.657Z,18.90
